Impacts METAR Board INFO
IDs:

KCVG - Cincinnati Intl, KY, US

Updated at: 1422 UTC 22 Nov 2017
Potential Impact None Slight Moderate High
Time22/02Z 22/03Z 22/04Z 22/05Z 22/06Z 22/07Z 22/08Z 22/09Z 22/10Z 22/11Z 22/12Z 22/13Z 22/14Z
VIS10 10 10 10 10 10 9 9 9 9 9 10 10
CIG55 45 26 33 45 -- -- -- -- -- -- -- 28
CoverOVCOVCOVCOVCOVCSCTFEWCLRCLRCLRCLRSCTOVC
FltCatVFRVFRMVFRVFRVFRVFRVFRVFRVFRVFRVFRVFRMVFR
WX-----RA--------------------
WDir300330320300310310310310320310310330330
WSpd8 10 17 13 10 9 7 7 7 8 6 7 5
WGst-- -- 26 -- -- -- -- -- -- -- -- -- --
Raw hourly METARs
KCVG 220152Z 30008KT 10SM OVC055 09/02 A3000 RMK AO2 SLP159 T00940022
KCVG 220252Z 33010KT 10SM BKN045 OVC150 08/01 A3002 RMK AO2 SLP166 T00780011 51018
KCVG 220352Z 32017G26KT 10SM -RA SCT021 OVC026 06/03 A3006 RMK AO2 PK WND 28026/0350 RAB35 SLP180 P0000 T00560028
KCVG 220452Z 30013KT 10SM FEW009 FEW014 OVC033 03/01 A3010 RMK AO2 RAE29 SLP194 P0003 T00280011 401390022
KCVG 220552Z 31010KT 10SM FEW017 FEW036 OVC045 02/01 A3012 RMK AO2 SLP200 BINOVC OHD 60003 T00220006 10106 20022 51034
KCVG 220652Z 31009KT 10SM SCT021 SCT044 01/M01 A3013 RMK AO2 SLP205 SCT021 V FEW T00111011
KCVG 220752Z 31007KT 9SM FEW019 M01/M02 A3015 RMK AO2 SLP212 T10061017
KCVG 220852Z 31007KT 9SM CLR M01/M02 A3017 RMK AO2 SLP220 T10111022 53018
KCVG 220952Z 32007KT 9SM CLR M02/M03 A3019 RMK AO2 SLP226 T10171033
KCVG 221052Z 31008KT 9SM CLR M02/M04 A3022 RMK AO2 SLP236 T10171039
KCVG 221152Z 31006KT 9SM CLR M02/M04 A3022 RMK AO2 SLP238 70003 T10221039 10022 21022 51017
KCVG 221252Z 33007KT 10SM SCT045 M02/M04 A3026 RMK AO2 SLP250 T10221044
KCVG 221352Z 33005KT 10SM OVC028 M01/M03 A3028 RMK AO2 SLP257 BINOVC T10061033